Ana Sayfa
METAR-TAF:

METAR-TAF

Havaalanları :

Cenevre Havalimanı

Cenevre, İsviçre

Enlem: 46-15N, Boylam: 006-08E, yükseklik: 420 m

Güncel hava durumu gözlemi

Rapor saat 02:50 UTC de 15 dakika önce yapıldı.
Rüzgar kuzey/kuzeydoğudan 8 kt, kuzey ve doğu/kuzeydoğu arasında değişken
Sıcaklık 11°C
Nem 66%
Basınç 1029 hPa
Görüş mesafesi 10 km veya daha fazla
1500 m altında bulut yok ve kümülonimbus yok

METAR: LSGG 230250Z AUTO 03008KT 360V060 CAVOK 11/05 Q1029 NOSIG

Saat: 05:05 (03:05 UTC)

Tahmin

Rapor saat 02:25 UTC de 40 dakika önce yapıldı.
Ayın 23'si saat 03 UTC'den ayın 24'si saat 09 UTC'ye kadar geçerli Tahmin
Rüzgar kuzeydoğudan 8 kt
Görüş mesafesi 10 km veya daha fazla
1500 m altında bulut yok ve kümülonimbus yok
Dönüşüyor
ayın 23'si saat 06 UTC'den ayın 23'si saat 09 UTC'ye kadar
Görüş mesafesi 10 km veya daha fazla
5000 ft yükseklikte parçalı bulutlu

TAF: LSGG 230225Z 2303/2409 04008KT CAVOK TX15/2315Z TN08/2306Z TN05/2406Z BECMG 2306/2309 9999 SCT050

4.000'den fazla havaalanı için hava durumu gözlemleri ve tahminleri (METAR ve TAF raporları).

Kullanılabilir istasyonlar harita üzerinde sarı ve kırmızı noktalarla gösterilir.

İstasyonun adını görmek için fareyi noktanın üzerinde gezdirin.

Sonrasında hava gözlem ve tahminlerini görmek için tıklayın.

Haritayı değiştirmek için: yaklaştırmak için siyah artı işaretli yeşil düğmeye ve uzaklaştırmak için de eksi işaretli düğmeye hızla tıklayın; bitişik haritalar için yeşil okları kullanın.


METAR-TAF: